Time;durP1;ratioP1;P1;durP2;ratioP2;P2;SDS_P1;SDS_P2;PMS_P1;PMS_P2;Temp;Humidity;BMP_temperature;BMP_pressure;BME280_temperature;BME280_humidity;BME280_pressure;Samples;Min_cycle;Max_cycle;Signal;HPM_P1;HPM_P2
2022/01/05 00:00:29;;;;;;;5.25;2.95;;;;;;;8.35;100.00;98910.06;5588697;31;33946;-72
2022/01/05 00:03:33;;;;;;;8.38;3.25;;;;;;;8.36;100.00;98914.34;5588947;31;33033;-72
2022/01/05 00:06:36;;;;;;;8.45;2.90;;;;;;;8.36;100.00;98919.63;5589632;31;34119;-69
2022/01/05 00:09:38;;;;;;;10.90;3.15;;;;;;;8.37;100.00;98906.25;5589591;31;33947;-71
2022/01/05 00:12:41;;;;;;;7.10;2.80;;;;;;;8.47;100.00;98917.28;5589444;31;35379;-71
2022/01/05 00:15:44;;;;;;;5.72;2.70;;;;;;;8.53;100.00;98905.97;5589502;31;34756;-71
2022/01/05 00:18:46;;;;;;;5.53;2.72;;;;;;;8.53;100.00;98913.06;5589515;31;33946;-71
2022/01/05 00:21:49;;;;;;;5.68;2.45;;;;;;;8.57;100.00;98909.03;5589490;31;34656;-72
2022/01/05 00:24:55;;;;;;;5.35;2.92;;;;;;;8.52;100.00;98906.97;5589525;31;34650;-72
2022/01/05 00:27:57;;;;;;;4.93;2.53;;;;;;;8.50;100.00;98903.72;5589454;31;34696;-70
2022/01/05 00:31:00;;;;;;;4.87;2.55;;;;;;;8.48;100.00;98892.50;5589393;31;34289;-70
2022/01/05 00:34:03;;;;;;;4.55;2.53;;;;;;;8.43;100.00;98892.25;5589806;31;33900;-70
2022/01/05 00:37:06;;;;;;;3.92;2.47;;;;;;;8.44;100.00;98885.16;5589127;31;34175;-70
2022/01/05 00:40:10;;;;;;;5.07;2.97;;;;;;;8.32;100.00;98894.59;5589419;31;34183;-70
2022/01/05 00:43:12;;;;;;;5.30;3.17;;;;;;;8.22;100.00;98895.72;5589199;31;34034;-70
2022/01/05 00:46:15;;;;;;;8.63;3.53;;;;;;;8.15;100.00;98905.38;5589152;31;34719;-70
2022/01/05 00:49:18;;;;;;;6.85;4.00;;;;;;;8.03;100.00;98898.16;5588534;31;34704;-70
2022/01/05 00:52:21;;;;;;;8.68;4.10;;;;;;;8.01;100.00;98908.06;5589060;31;34069;-70
2022/01/05 00:55:24;;;;;;;8.50;4.15;;;;;;;7.91;100.00;98905.75;5588245;31;35127;-70
2022/01/05 00:58:27;;;;;;;7.95;4.80;;;;;;;7.92;100.00;98909.19;5589032;31;33912;-70
2022/01/05 01:01:29;;;;;;;9.35;4.87;;;;;;;7.89;100.00;98912.22;5588075;31;34662;-70
2022/01/05 01:04:33;;;;;;;8.85;4.55;;;;;;;7.90;100.00;98913.84;5588873;31;35180;-70
2022/01/05 01:07:36;;;;;;;9.38;5.32;;;;;;;7.90;100.00;98909.38;5588027;31;34128;-70
2022/01/05 01:10:39;;;;;;;9.48;5.50;;;;;;;7.80;100.00;98908.84;5588734;31;34821;-70
2022/01/05 01:13:43;;;;;;;8.23;5.10;;;;;;;7.81;100.00;98905.22;5590102;31;33939;-70
2022/01/05 01:16:46;;;;;;;7.90;5.00;;;;;;;7.76;100.00;98908.41;5591184;31;35270;-71
2022/01/05 01:19:49;;;;;;;10.50;4.93;;;;;;;7.76;100.00;98904.94;5591189;31;33866;-70
2022/01/05 01:22:51;;;;;;;8.70;5.20;;;;;;;7.68;100.00;98903.25;5590462;31;34630;-70
2022/01/05 01:25:54;;;;;;;8.73;5.20;;;;;;;7.65;100.00;98908.09;5591034;31;33929;-70
2022/01/05 01:28:58;;;;;;;10.90;5.37;;;;;;;7.59;100.00;98900.91;5590998;31;34237;-70
2022/01/05 01:32:01;;;;;;;8.35;4.82;;;;;;;7.51;100.00;98893.88;5591372;31;33899;-70
2022/01/05 01:35:05;;;;;;;8.13;4.93;;;;;;;7.51;100.00;98890.44;5591293;31;33939;-70
2022/01/05 01:38:08;;;;;;;9.57;5.12;;;;;;;7.50;100.00;98879.09;5590833;31;34770;-70
2022/01/05 01:41:11;;;;;;;13.57;5.82;;;;;;;7.55;100.00;98881.97;5591004;31;35180;-70
2022/01/05 01:44:16;;;;;;;8.43;5.40;;;;;;;7.52;100.00;98881.53;5590825;31;33950;-70
2022/01/05 01:47:19;;;;;;;11.10;5.00;;;;;;;7.48;100.00;98881.06;5590916;31;33735;-70
2022/01/05 01:50:22;;;;;;;11.80;5.50;;;;;;;7.46;100.00;98884.88;5590903;31;33906;-70
2022/01/05 01:53:25;;;;;;;9.23;4.80;;;;;;;7.43;100.00;98896.66;5590858;31;34552;-71
2022/01/05 01:56:31;;;;;;;9.73;4.93;;;;;;;7.35;100.00;98892.28;5590816;31;34046;-71
2022/01/05 01:59:35;;;;;;;9.20;4.93;;;;;;;7.28;100.00;98880.00;5591100;31;35263;-70
2022/01/05 02:02:42;;;;;;;12.15;4.90;;;;;;;7.37;100.00;98874.44;5590343;31;34269;-70
2022/01/05 02:05:45;;;;;;;8.43;4.70;;;;;;;7.37;100.00;98871.81;5590980;31;34034;-69
2022/01/05 02:08:48;;;;;;;9.32;5.00;;;;;;;7.39;100.00;98875.09;5590067;31;34588;-70
2022/01/05 02:11:51;;;;;;;9.75;5.03;;;;;;;7.42;100.00;98879.16;5589904;31;34552;-70
2022/01/05 02:14:54;;;;;;;6.45;3.90;;;;;;;7.45;100.00;98883.28;5589914;31;34008;-70
2022/01/05 02:21:01;;;;;;;9.35;4.80;;;;;;;7.55;100.00;98889.88;5590639;31;33995;-70
2022/01/05 02:24:06;;;;;;;9.43;4.65;;;;;;;7.62;100.00;98884.69;5589635;31;33936;-70
2022/01/05 02:27:08;;;;;;;11.73;4.85;;;;;;;7.58;100.00;98876.34;5590545;31;34108;-70
2022/01/05 02:30:13;;;;;;;8.00;4.68;;;;;;;7.59;100.00;98872.69;5590549;31;34420;-70
2022/01/05 02:33:16;;;;;;;9.23;4.70;;;;;;;7.54;100.00;98875.06;5585089;31;145872;-70
2022/01/05 02:36:21;;;;;;;8.45;4.15;;;;;;;7.46;100.00;98874.34;5590280;31;34022;-70
2022/01/05 02:39:24;;;;;;;10.20;4.30;;;;;;;7.46;100.00;98872.50;5590310;31;34143;-70
2022/01/05 02:42:28;;;;;;;9.40;4.68;;;;;;;7.42;100.00;98864.16;5590320;31;34594;-69
2022/01/05 02:45:30;;;;;;;6.25;4.18;;;;;;;7.60;100.00;98860.31;5590388;31;34310;-70
2022/01/05 02:48:34;;;;;;;8.60;3.72;;;;;;;7.50;100.00;98857.16;5590284;31;34005;-70
2022/01/05 02:51:36;;;;;;;8.25;4.18;;;;;;;7.55;100.00;98857.41;5590306;31;34416;-70
2022/01/05 02:54:39;;;;;;;10.68;4.15;;;;;;;7.57;100.00;98850.94;5589437;31;34725;-70
2022/01/05 02:57:42;;;;;;;7.28;3.72;;;;;;;7.53;100.00;98856.78;5590543;31;33872;-70
2022/01/05 03:00:45;;;;;;;6.93;3.47;;;;;;;7.59;100.00;98856.03;5589576;31;33889;-70
2022/01/05 03:03:48;;;;;;;5.45;3.40;;;;;;;7.71;100.00;98862.47;5590259;31;34727;-70
2022/01/05 03:06:51;;;;;;;6.00;3.47;;;;;;;7.78;100.00;98861.53;5589468;31;33970;-70
2022/01/05 03:09:54;;;;;;;6.85;3.37;;;;;;;7.79;100.00;98851.81;5590147;31;34092;-70
2022/01/05 03:12:56;;;;;;;4.65;3.00;;;;;;;7.81;100.00;98850.59;5590051;31;34211;-70
2022/01/05 03:15:59;;;;;;;7.37;3.30;;;;;;;7.75;100.00;98851.34;5589709;31;34044;-70
2022/01/05 03:19:03;;;;;;;8.63;3.97;;;;;;;7.81;100.00;98853.22;5589969;31;34635;-70
2022/01/05 03:22:05;;;;;;;5.30;3.17;;;;;;;7.82;100.00;98846.12;5589963;31;34026;-70
2022/01/05 03:25:15;;;;;;;5.55;3.40;;;;;;;7.85;100.00;98851.03;5590149;31;34524;-70
2022/01/05 03:28:23;;;;;;;8.65;4.37;;;;;;;7.82;100.00;98854.88;5589915;31;33998;-70
2022/01/05 03:31:26;;;;;;;9.30;4.18;;;;;;;7.73;100.00;98850.72;5590062;31;34395;-70
2022/01/05 03:34:31;;;;;;;7.75;4.32;;;;;;;7.62;100.00;98856.47;5589446;31;33864;-70
2022/01/05 03:37:34;;;;;;;10.40;4.30;;;;;;;7.53;100.00;98840.94;5588468;31;34563;-70
2022/01/05 03:40:37;;;;;;;7.40;4.28;;;;;;;7.37;100.00;98840.16;5589058;31;34657;-70
2022/01/05 03:43:40;;;;;;;8.63;4.70;;;;;;;7.28;100.00;98848.34;5589900;31;34321;-70
2022/01/05 03:46:42;;;;;;;8.50;4.05;;;;;;;7.24;100.00;98845.28;5589460;31;34040;-70
2022/01/05 03:49:45;;;;;;;8.90;4.50;;;;;;;7.18;100.00;98842.53;5589920;31;33971;-70
2022/01/05 03:52:48;;;;;;;6.12;4.18;;;;;;;7.07;100.00;98838.53;5589412;31;34558;-70
2022/01/05 03:55:51;;;;;;;8.02;4.40;;;;;;;7.01;100.00;98839.28;5589023;31;33919;-70
2022/01/05 03:58:53;;;;;;;7.28;4.00;;;;;;;7.08;100.00;98842.00;5590033;31;34637;-70
2022/01/05 04:01:56;;;;;;;13.45;3.97;;;;;;;7.03;100.00;98832.00;5589740;31;34047;-70
2022/01/05 04:04:59;;;;;;;11.38;3.97;;;;;;;6.96;100.00;98821.38;5589633;31;34051;-70
2022/01/05 04:08:02;;;;;;;6.62;3.30;;;;;;;7.01;100.00;98833.19;5588880;31;34164;-70
2022/01/05 04:11:05;;;;;;;8.38;3.42;;;;;;;6.96;100.00;98831.12;5588795;31;35447;-70
2022/01/05 04:14:08;;;;;;;5.72;2.67;;;;;;;7.13;100.00;98824.63;5589474;31;35247;-70
2022/01/05 04:17:11;;;;;;;7.78;3.53;;;;;;;7.09;100.00;98823.38;5588882;31;33923;-70
2022/01/05 04:20:15;;;;;;;4.72;3.00;;;;;;;7.23;100.00;98837.53;5589493;31;35308;-70
2022/01/05 04:23:18;;;;;;;5.47;2.25;;;;;;;7.34;100.00;98829.16;5589577;31;34077;-70
2022/01/05 04:26:21;;;;;;;8.25;2.60;;;;;;;7.64;100.00;98829.91;5588523;31;33935;-70
2022/01/05 04:29:24;;;;;;;5.55;2.28;;;;;;;7.71;100.00;98817.59;5588687;31;34618;-70
2022/01/05 04:32:26;;;;;;;6.60;2.20;;;;;;;7.73;100.00;98808.50;5589263;31;34463;-70
2022/01/05 04:35:49;;;;;;;3.62;2.58;;;;;;;7.92;100.00;98816.78;5589230;31;34037;-70
2022/01/05 04:38:52;;;;;;;8.00;2.75;;;;;;;7.98;100.00;98805.47;5589033;31;34617;-70
2022/01/05 04:41:55;;;;;;;5.30;2.80;;;;;;;8.01;100.00;98802.44;5589174;31;34920;-68
2022/01/05 04:44:58;;;;;;;6.28;2.50;;;;;;;8.09;100.00;98810.22;5588387;31;33943;-68
2022/01/05 04:48:01;;;;;;;5.47;2.85;;;;;;;8.04;100.00;98808.16;5587049;31;34620;-69
2022/01/05 04:51:04;;;;;;;5.35;2.60;;;;;;;8.09;100.00;98803.13;5589081;31;34717;-69
2022/01/05 04:54:07;;;;;;;5.40;2.58;;;;;;;8.17;100.00;98808.28;5589010;31;33899;-70
2022/01/05 04:57:09;;;;;;;5.18;2.47;;;;;;;8.10;100.00;98806.59;5588242;31;34028;-70
2022/01/05 05:00:12;;;;;;;5.18;2.37;;;;;;;8.19;100.00;98816.81;5588988;31;34082;-70
2022/01/05 05:03:15;;;;;;;3.85;2.17;;;;;;;8.16;100.00;98811.13;5588561;31;33939;-70
2022/01/05 05:06:18;;;;;;;4.97;2.37;;;;;;;8.08;100.00;98806.78;5588919;31;34436;-69
2022/01/05 05:09:21;;;;;;;3.42;2.20;;;;;;;8.19;100.00;98800.97;5588732;31;35274;-70
2022/01/05 05:12:24;;;;;;;5.85;2.42;;;;;;;8.17;100.00;98803.00;5587886;31;34925;-69
2022/01/05 05:15:27;;;;;;;2.80;2.00;;;;;;;8.23;100.00;98796.13;5588640;31;34315;-70
2022/01/05 05:18:29;;;;;;;5.25;2.58;;;;;;;8.36;100.00;98806.84;5587811;31;33909;-70
2022/01/05 05:21:32;;;;;;;3.97;2.40;;;;;;;8.22;100.00;98813.00;5588899;31;33998;-70
2022/01/05 05:24:35;;;;;;;4.97;2.58;;;;;;;8.24;100.00;98813.59;5588899;31;34284;-70
2022/01/05 05:27:39;;;;;;;4.68;2.53;;;;;;;8.29;100.00;98819.13;5588708;31;35142;-70
2022/01/05 05:31:02;;;;;;;5.78;2.53;;;;;;;8.28;100.00;98807.75;5587859;31;34146;-70
2022/01/05 05:34:08;;;;;;;4.45;2.47;;;;;;;8.35;100.00;98818.41;5587576;31;33905;-70
2022/01/05 05:37:11;;;;;;;3.85;2.20;;;;;;;8.46;100.00;98825.00;5588265;31;33961;-70
2022/01/05 05:40:13;;;;;;;4.55;2.47;;;;;;;8.45;100.00;98821.53;5587812;31;34652;-70
2022/01/05 05:43:16;;;;;;;4.55;2.42;;;;;;;8.43;100.00;98828.00;5588139;31;34129;-70
2022/01/05 05:46:19;;;;;;;7.75;3.10;;;;;;;8.33;100.00;98830.97;5587345;31;34058;-70
2022/01/05 05:49:22;;;;;;;5.15;2.80;;;;;;;8.37;100.00;98836.72;5586963;31;34649;-70
2022/01/05 05:52:25;;;;;;;4.85;3.00;;;;;;;8.23;100.00;98844.50;5588050;31;33912;-70
2022/01/05 05:55:28;;;;;;;6.03;2.95;;;;;;;8.18;100.00;98838.97;5587809;31;33879;-70
2022/01/05 05:58:31;;;;;;;6.93;3.30;;;;;;;8.12;100.00;98852.94;5588830;31;34024;-70
2022/01/05 06:01:33;;;;;;;5.65;3.37;;;;;;;8.07;100.00;98852.69;5591114;31;33852;-70
2022/01/05 06:04:37;;;;;;;7.50;3.45;;;;;;;8.05;100.00;98846.78;5590608;31;35177;-70
2022/01/05 06:07:40;;;;;;;7.15;3.72;;;;;;;7.98;100.00;98858.28;5590575;31;34007;-70
2022/01/05 06:10:43;;;;;;;6.32;3.60;;;;;;;7.96;100.00;98849.72;5590559;31;34648;-70
2022/01/05 06:13:46;;;;;;;6.20;3.53;;;;;;;7.90;100.00;98845.19;5590347;31;34901;-70
2022/01/05 06:16:49;;;;;;;10.48;4.00;;;;;;;7.92;100.00;98844.00;5589590;31;34468;-70
2022/01/05 06:19:52;;;;;;;14.00;3.90;;;;;;;7.87;100.00;98856.97;5590823;31;34545;-70
2022/01/05 06:22:55;;;;;;;6.18;3.87;;;;;;;7.86;100.00;98853.50;5576753;31;34674;-70
2022/01/05 06:25:57;;;;;;;9.13;4.53;;;;;;;7.84;100.00;98852.06;5590484;31;33950;-70
2022/01/05 06:29:00;;;;;;;6.62;4.35;;;;;;;7.84;100.00;98859.97;5589525;31;34119;-70
2022/01/05 06:32:05;;;;;;;7.80;3.97;;;;;;;7.84;100.00;98857.34;5589937;31;34635;-70
2022/01/05 06:35:08;;;;;;;7.60;4.03;;;;;;;7.83;100.00;98855.69;5589954;31;34041;-70
2022/01/05 06:38:11;;;;;;;7.07;4.12;;;;;;;7.84;100.00;98860.78;5590331;31;34063;-70
2022/01/05 06:41:14;;;;;;;10.60;4.30;;;;;;;7.85;100.00;98867.69;5590137;31;34677;-70
2022/01/05 06:44:17;;;;;;;9.68;4.45;;;;;;;7.85;100.00;98857.13;5588990;31;34124;-70
2022/01/05 06:47:20;;;;;;;9.25;3.78;;;;;;;7.85;100.00;98864.22;5589933;31;33906;-70
2022/01/05 06:50:22;;;;;;;6.85;4.30;;;;;;;7.86;100.00;98863.22;5589890;31;34088;-70
2022/01/05 06:53:28;;;;;;;10.45;4.45;;;;;;;8.00;100.00;98865.00;5589359;31;34865;-70
2022/01/05 06:56:30;;;;;;;7.18;4.20;;;;;;;7.93;100.00;98858.84;5590005;31;33972;-70
2022/01/05 06:59:33;;;;;;;11.12;4.20;;;;;;;7.83;100.00;98863.63;5589944;31;34406;-70
2022/01/05 07:02:37;;;;;;;9.57;3.72;;;;;;;7.85;100.00;98872.16;5589516;31;34651;-70
2022/01/05 07:05:41;;;;;;;9.93;3.92;;;;;;;7.98;100.00;98867.03;5589207;31;34417;-70
2022/01/05 07:08:44;;;;;;;8.77;4.15;;;;;;;8.03;100.00;98869.09;5588973;31;34581;-70
2022/01/05 07:11:47;;;;;;;8.27;3.83;;;;;;;8.02;100.00;98862.19;5588997;31;35257;-70
2022/01/05 07:14:49;;;;;;;7.20;3.92;;;;;;;7.97;100.00;98864.56;5589846;31;34217;-70
2022/01/05 07:17:54;;;;;;;10.18;3.90;;;;;;;7.95;100.00;98863.91;5589515;31;34748;-70
2022/01/05 07:20:56;;;;;;;12.23;5.65;;;;;;;7.94;100.00;98870.25;5589619;31;34310;-70
2022/01/05 07:24:00;;;;;;;6.00;4.05;;;;;;;8.01;100.00;98874.56;5589293;31;35260;-70
2022/01/05 07:27:03;;;;;;;7.37;3.97;;;;;;;8.12;100.00;98871.44;5589186;31;33959;-70
2022/01/05 07:30:07;;;;;;;8.77;4.03;;;;;;;8.24;100.00;98877.00;5588759;31;35099;-70
2022/01/05 07:33:12;;;;;;;6.90;3.50;;;;;;;8.25;100.00;98882.13;5589977;31;34090;-69
2022/01/05 07:36:15;;;;;;;6.50;3.75;;;;;;;8.37;100.00;98863.97;5589244;31;34835;-70
2022/01/05 07:39:18;;;;;;;5.45;3.55;;;;;;;8.42;100.00;98872.16;5589618;31;34337;-70
2022/01/05 07:42:21;;;;;;;5.60;3.55;;;;;;;8.44;100.00;98877.22;5588916;31;33894;-70
2022/01/05 07:45:23;;;;;;;7.60;3.37;;;;;;;8.47;100.00;98887.44;5589210;31;34975;-69
2022/01/05 07:48:26;;;;;;;5.87;3.37;;;;;;;8.51;100.00;98891.31;5590034;31;34465;-70
2022/01/05 07:51:29;;;;;;;7.80;3.67;;;;;;;8.57;100.00;98886.06;5588875;31;34594;-69
2022/01/05 07:54:32;;;;;;;8.95;4.03;;;;;;;8.59;100.00;98881.41;5589805;31;34061;-70
2022/01/05 07:57:35;;;;;;;8.75;3.90;;;;;;;8.63;100.00;98866.00;5589075;31;34753;-70
2022/01/05 08:00:38;;;;;;;7.95;3.75;;;;;;;8.68;100.00;98868.88;5589300;31;33992;-70
2022/01/05 08:03:42;;;;;;;6.95;3.75;;;;;;;8.67;100.00;98865.41;5588460;31;33963;-70
2022/01/05 08:06:55;;;;;;;7.30;4.30;;;;;;;8.70;100.00;98861.56;5589409;31;34055;-70
2022/01/05 08:09:59;;;;;;;9.77;4.35;;;;;;;8.75;100.00;98874.22;5589784;31;34000;-70
2022/01/05 08:13:01;;;;;;;9.90;3.97;;;;;;;8.73;100.00;98884.97;5589522;31;34036;-70
2022/01/05 08:16:05;;;;;;;8.88;4.43;;;;;;;8.73;100.00;98885.78;5589256;31;34219;-70
2022/01/05 08:19:08;;;;;;;6.87;4.22;;;;;;;8.71;100.00;98889.66;5589356;31;34478;-70
2022/01/05 08:22:11;;;;;;;7.95;4.45;;;;;;;8.70;100.00;98888.00;5589155;31;33903;-69
2022/01/05 08:25:16;;;;;;;8.30;4.60;;;;;;;8.72;100.00;98891.25;5589359;31;34360;-69
2022/01/05 08:28:20;;;;;;;11.40;4.72;;;;;;;8.72;100.00;98901.84;5588482;31;33924;-70
2022/01/05 08:31:22;;;;;;;10.68;4.07;;;;;;;8.73;100.00;98900.84;5589043;31;34356;-70
2022/01/05 08:34:25;;;;;;;8.80;4.45;;;;;;;8.77;100.00;98890.69;5589087;31;35285;-70
2022/01/05 08:37:28;;;;;;;11.15;4.40;;;;;;;8.91;100.00;98885.31;5588235;31;34568;-70
2022/01/05 08:40:34;;;;;;;7.05;4.20;;;;;;;8.98;100.00;98895.94;5589163;31;33864;-70
2022/01/05 08:43:36;;;;;;;8.55;4.18;;;;;;;9.18;100.00;98894.22;5589062;31;34053;-70
2022/01/05 08:46:39;;;;;;;11.98;4.80;;;;;;;9.18;100.00;98893.41;5589257;31;34323;-70
2022/01/05 08:49:42;;;;;;;8.88;4.65;;;;;;;9.19;100.00;98900.34;5589042;31;34738;-72
2022/01/05 08:52:46;;;;;;;9.98;4.70;;;;;;;9.30;100.00;98890.00;5589004;31;33917;-69
2022/01/05 08:55:50;;;;;;;9.13;4.65;;;;;;;9.37;99.76;98884.75;5588718;31;34535;-71
2022/01/05 08:58:54;;;;;;;11.40;5.00;;;;;;;9.39;100.00;98898.63;5588001;31;35291;-70
2022/01/05 09:01:57;;;;;;;10.93;5.07;;;;;;;9.51;98.92;98894.41;5588994;31;34487;-69
2022/01/05 09:05:00;;;;;;;14.60;6.25;;;;;;;9.27;100.00;98893.06;5587769;31;33924;-71
2022/01/05 09:08:02;;;;;;;10.02;5.05;;;;;;;9.30;100.00;98895.31;5588677;31;34691;-70
2022/01/05 09:11:08;;;;;;;9.32;4.60;;;;;;;9.49;99.91;98899.06;5574871;31;32856;-70
2022/01/05 09:14:10;;;;;;;10.45;5.00;;;;;;;9.58;99.40;98901.34;5588642;31;34079;-70
2022/01/05 09:17:13;;;;;;;12.43;4.75;;;;;;;9.56;99.20;98916.63;5587341;31;34651;-70
2022/01/05 09:20:16;;;;;;;10.55;5.35;;;;;;;9.50;99.56;98909.47;5588638;31;34031;-70
2022/01/05 09:23:19;;;;;;;14.52;6.07;;;;;;;9.54;99.73;98916.00;5588127;31;35212;-70
2022/01/05 09:26:21;;;;;;;9.32;5.07;;;;;;;9.74;100.00;98928.50;5588395;31;35266;-70
2022/01/05 09:29:24;;;;;;;9.20;3.75;;;;;;;9.83;99.51;98914.88;5588477;31;34702;-70
2022/01/05 09:32:27;;;;;;;9.65;4.85;;;;;;;10.08;96.91;98915.16;5588326;31;34595;-70
2022/01/05 09:35:31;;;;;;;10.68;4.32;;;;;;;10.19;96.95;98927.88;5590273;31;34570;-71
2022/01/05 09:41:57;;;;;;;5.18;2.58;;;;;;;10.19;96.10;98935.81;5590886;31;34087;-70
2022/01/05 09:44:59;;;;;;;;;;;;;;;10.22;94.30;98940.72;5591023;31;34121;-70
2022/01/05 09:48:40;;;;;;;4.57;2.00;;;;;;;10.40;92.52;98940.97;5590684;31;34905;-71
2022/01/05 09:51:43;;;;;;;3.87;1.90;;;;;;;10.40;92.59;98940.16;5591229;31;33989;-72
2022/01/05 09:54:48;;;;;;;3.08;1.98;;;;;;;10.35;92.56;98947.91;5590479;31;34637;-72
2022/01/05 09:57:52;;;;;;;3.83;2.10;;;;;;;10.33;93.11;98937.47;5590476;31;33691;-70
2022/01/05 10:00:54;;;;;;;7.18;2.20;;;;;;;10.36;92.99;98934.41;5590688;31;35269;-70
2022/01/05 10:04:02;;;;;;;7.30;2.42;;;;;;;10.31;92.56;98930.75;5590985;31;33950;-70
2022/01/05 10:07:09;;;;;;;3.80;2.20;;;;;;;10.21;93.25;98940.94;5590476;31;33929;-70
2022/01/05 10:10:12;;;;;;;3.00;2.10;;;;;;;10.23;92.99;98941.53;5590606;31;34562;-70
2022/01/05 10:13:15;;;;;;;7.12;3.60;;;;;;;10.13;93.41;98933.94;5590539;31;33988;-70
2022/01/05 10:16:18;;;;;;;5.62;3.60;;;;;;;9.91;93.91;98943.03;5589518;31;34717;-70
2022/01/05 10:19:21;;;;;;;5.43;3.05;;;;;;;9.72;95.39;98944.59;5590165;31;34198;-72
2022/01/05 10:22:33;;;;;;;5.25;3.25;;;;;;;9.70;95.65;98941.31;5590264;31;33952;-72
2022/01/05 10:25:36;;;;;;;4.97;2.70;;;;;;;9.67;96.06;98946.19;5590544;31;34630;-70
2022/01/05 10:28:42;;;;;;;3.92;2.75;;;;;;;9.60;96.47;98933.75;5590345;31;33932;-70
2022/01/05 10:31:52;;;;;;;4.75;2.65;;;;;;;9.54;96.88;98936.34;5589927;31;34013;-71
2022/01/05 10:35:12;;;;;;;4.12;2.20;;;;;;;9.44;97.28;98934.06;5589799;31;34023;-71
2022/01/05 10:38:15;;;;;;;4.77;2.70;;;;;;;9.42;97.58;98932.63;5589413;31;34500;-70
2022/01/05 10:41:20;;;;;;;4.65;2.53;;;;;;;9.31;98.38;98943.75;5592689;31;33962;-69
2022/01/05 10:44:24;;;;;;;2.87;1.85;;;;;;;9.26;98.79;98941.69;5594292;31;34539;-70
2022/01/05 10:47:27;;;;;;;3.65;1.92;;;;;;;9.19;98.89;98935.56;5590495;31;35004;-71
2022/01/05 10:50:31;;;;;;;3.30;1.98;;;;;;;9.15;98.66;98939.59;5590400;31;34193;-70
2022/01/05 10:53:34;;;;;;;5.50;1.87;;;;;;;9.12;98.67;98942.63;5590081;31;34548;-71
2022/01/05 10:56:36;;;;;;;2.28;1.60;;;;;;;9.18;98.59;98956.91;5589354;31;34664;-70
2022/01/05 10:59:44;;;;;;;2.87;1.67;;;;;;;9.08;98.68;98952.78;5590277;31;33967;-71
2022/01/05 11:02:46;;;;;;;3.47;1.50;;;;;;;9.04;98.78;98954.19;5589431;31;33881;-70
2022/01/05 11:06:00;;;;;;;2.28;1.60;;;;;;;8.83;99.78;98956.03;5590041;31;34447;-70
2022/01/05 11:09:04;;;;;;;2.22;1.45;;;;;;;8.80;100.00;98972.28;5590133;31;34561;-70
2022/01/05 11:12:10;;;;;;;2.10;1.35;;;;;;;8.61;100.00;98973.75;5590151;31;33999;-70
2022/01/05 11:15:39;;;;;;;2.67;1.42;;;;;;;8.45;100.00;98977.47;5589434;31;33973;-70
2022/01/05 11:18:43;;;;;;;2.42;1.20;;;;;;;8.31;100.00;98996.84;5589858;31;33986;-70
2022/01/05 11:21:57;;;;;;;1.85;0.95;;;;;;;8.19;100.00;98996.44;5589071;31;35547;-73
2022/01/05 11:25:01;;;;;;;1.80;1.12;;;;;;;8.02;100.00;98999.50;5589952;31;35242;-71
2022/01/05 11:28:06;;;;;;;1.70;1.20;;;;;;;8.00;100.00;99012.06;5589821;31;34058;-73
2022/01/05 11:31:10;;;;;;;1.52;1.08;;;;;;;7.83;100.00;99009.66;5590127;31;33994;-71
2022/01/05 11:34:13;;;;;;;1.65;1.20;;;;;;;7.83;100.00;99007.00;5589834;31;33925;-70
2022/01/05 11:37:19;;;;;;;1.70;1.10;;;;;;;7.80;100.00;99015.28;5588917;31;33855;-72
2022/01/05 11:40:23;;;;;;;2.15;1.30;;;;;;;7.83;100.00;99008.81;5589787;31;34085;-71
2022/01/05 11:43:32;;;;;;;1.37;1.15;;;;;;;7.65;100.00;99019.72;5589787;31;33944;-71
2022/01/05 11:46:36;;;;;;;2.58;1.50;;;;;;;7.64;100.00;99014.66;5590080;31;33975;-71
2022/01/05 11:49:39;;;;;;;2.53;1.37;;;;;;;7.62;100.00;99022.75;5589832;31;34559;-71
2022/01/05 11:53:00;;;;;;;1.90;1.15;;;;;;;7.59;100.00;99036.31;5589562;31;34784;-71
2022/01/05 11:56:21;;;;;;;2.00;1.15;;;;;;;7.55;100.00;99061.41;5588273;31;34057;-71
2022/01/05 11:59:35;;;;;;;2.17;1.30;;;;;;;7.60;100.00;99066.19;5590111;31;34560;-71
2022/01/05 12:02:40;;;;;;;2.00;1.40;;;;;;;7.68;100.00;99037.03;5589628;31;34414;-71
2022/01/05 12:06:03;;;;;;;4.03;1.60;;;;;;;7.69;100.00;99034.22;5589710;31;33902;-72
2022/01/05 12:09:27;;;;;;;2.60;1.67;;;;;;;7.55;100.00;99045.56;5588796;31;34038;-71
2022/01/05 12:12:35;;;;;;;2.50;1.62;;;;;;;7.36;100.00;99061.94;5588982;31;33384;-71
2022/01/05 12:15:52;;;;;;;2.05;1.75;;;;;;;7.33;100.00;99062.28;5589615;31;34444;-72
2022/01/05 12:19:12;;;;;;;3.20;1.92;;;;;;;7.25;100.00;99063.19;5589359;31;33924;-71
2022/01/05 12:22:23;;;;;;;2.70;1.60;;;;;;;7.19;100.00;99068.34;5591935;31;33965;-71
2022/01/05 12:25:27;;;;;;;4.60;1.70;;;;;;;7.14;100.00;99073.34;5589292;31;35379;-70
2022/01/05 12:28:32;;;;;;;1.80;1.33;;;;;;;7.22;100.00;99060.91;5589468;31;34054;-71
2022/01/05 12:31:54;;;;;;;2.28;1.20;;;;;;;7.19;100.00;99073.63;5589537;31;34139;-71
2022/01/05 12:35:00;;;;;;;1.90;1.40;;;;;;;7.14;100.00;99089.16;5589662;31;33893;-71
2022/01/05 12:38:04;;;;;;;2.12;1.08;;;;;;;7.07;100.00;99093.53;5589276;31;33866;-72
2022/01/05 12:41:25;;;;;;;1.65;0.77;;;;;;;7.19;100.00;99084.19;5589291;31;34627;-70
2022/01/05 12:44:30;;;;;;;1.35;0.98;;;;;;;7.13;100.00;99088.34;5588915;31;34000;-70
2022/01/05 12:47:37;;;;;;;2.95;0.80;;;;;;;7.10;100.00;99099.25;5588288;31;33987;-70
2022/01/05 12:50:40;;;;;;;1.10;0.55;;;;;;;7.08;100.00;99095.97;5588167;31;34589;-70
2022/01/05 12:54:00;;;;;;;1.58;0.65;;;;;;;7.01;100.00;99100.31;5589179;31;33903;-70
2022/01/05 12:57:05;;;;;;;1.77;0.68;;;;;;;6.93;100.00;99095.91;5589151;31;34474;-70
2022/01/05 13:00:08;;;;;;;1.25;0.52;;;;;;;6.96;100.00;99100.84;5588932;31;34048;-71
2022/01/05 13:03:30;;;;;;;0.88;0.60;;;;;;;6.92;100.00;99109.28;5588875;31;34000;-72
2022/01/05 13:06:33;;;;;;;0.95;0.50;;;;;;;6.96;100.00;99114.03;5588737;31;35250;-71
2022/01/05 13:09:43;;;;;;;0.95;0.45;;;;;;;6.96;100.00;99121.94;5587638;31;34144;-71
2022/01/05 13:12:47;;;;;;;1.55;0.70;;;;;;;6.85;100.00;99126.78;5588626;31;33928;-70
2022/01/05 13:15:50;;;;;;;1.40;0.65;;;;;;;6.84;100.00;99127.78;5588670;31;33958;-70
2022/01/05 13:18:52;;;;;;;1.48;0.90;;;;;;;6.83;100.00;99129.59;5587784;31;34757;-72
2022/01/05 13:22:00;;;;;;;1.50;0.90;;;;;;;6.91;100.00;99141.91;5588486;31;34004;-70
2022/01/05 13:25:17;;;;;;;1.95;0.82;;;;;;;6.86;100.00;99138.97;5587654;31;34425;-71
2022/01/05 13:28:20;;;;;;;2.35;1.17;;;;;;;6.91;100.00;99153.28;5588417;31;34912;-72
2022/01/05 13:31:22;;;;;;;1.45;0.95;;;;;;;6.86;100.00;99147.72;5588420;31;34576;-72
2022/01/05 13:34:40;;;;;;;3.47;1.20;;;;;;;6.77;100.00;99159.31;5588464;31;34013;-71
2022/01/05 13:37:54;;;;;;;1.62;1.23;;;;;;;6.77;100.00;99143.47;5588033;31;34596;-70
2022/01/05 13:40:59;;;;;;;1.87;1.25;;;;;;;6.78;100.00;99144.28;5588378;31;34139;-72
2022/01/05 13:44:02;;;;;;;2.83;1.15;;;;;;;6.74;100.00;99145.63;5588292;31;33927;-72
2022/01/05 13:47:07;;;;;;;2.90;1.30;;;;;;;6.72;100.00;99142.34;5588131;31;34543;-71
2022/01/05 13:50:13;;;;;;;2.78;1.40;;;;;;;6.74;100.00;99137.72;5587133;31;33973;-71
2022/01/05 13:53:19;;;;;;;4.00;1.50;;;;;;;6.72;100.00;99139.72;5588055;31;34724;-70
2022/01/05 13:56:23;;;;;;;2.45;1.40;;;;;;;6.70;100.00;99141.69;5587801;31;33956;-70
2022/01/05 13:59:42;;;;;;;4.78;1.75;;;;;;;6.69;100.00;99147.97;5587737;31;34515;-72
2022/01/05 14:02:45;;;;;;;5.10;1.87;;;;;;;6.66;100.00;99159.69;5587764;31;33971;-72
2022/01/05 14:05:48;;;;;;;4.53;1.70;;;;;;;6.69;100.00;99175.12;5587782;31;34066;-72
2022/01/05 14:08:53;;;;;;;3.75;1.90;;;;;;;6.61;100.00;99180.44;5587862;31;33896;-70
2022/01/05 14:12:00;;;;;;;5.12;2.72;;;;;;;6.62;100.00;99186.56;5587755;31;34624;-71
2022/01/05 14:15:05;;;;;;;3.70;1.80;;;;;;;6.63;100.00;99182.94;5587578;31;34703;-70
2022/01/05 14:18:09;;;;;;;3.47;2.05;;;;;;;6.61;100.00;99183.09;5586633;31;34076;-72
2022/01/05 14:21:12;;;;;;;2.85;1.98;;;;;;;6.68;100.00;99197.22;5589793;31;34589;-72
2022/01/05 14:24:37;;;;;;;2.85;2.03;;;;;;;6.61;100.00;99206.81;5590716;31;34711;-71
2022/01/05 14:27:43;;;;;;;5.70;2.60;;;;;;;6.48;100.00;99191.56;5589950;31;34057;-71
2022/01/05 14:30:54;;;;;;;3.15;2.15;;;;;;;6.45;100.00;99186.59;5590037;31;34835;-70
2022/01/05 14:33:57;;;;;;;5.53;2.53;;;;;;;6.43;100.00;99193.87;5590224;31;34615;-72
2022/01/05 14:37:05;;;;;;;4.12;2.60;;;;;;;6.38;100.00;99187.47;5589234;31;34309;-72